sensor_id;sensor_type;location;lat;lon;timestamp;pressure;altitude;pressure_sealevel;temperature;humidity
57801;BME280;43627;42.728;23.256;2023-03-18T00:00:06;95393.38;;;-0.71;100.00
57801;BME280;43627;42.728;23.256;2023-03-18T00:02:37;95387.28;;;-0.75;100.00
57801;BME280;43627;42.728;23.256;2023-03-18T00:05:07;95387.59;;;-0.91;100.00
57801;BME280;43627;42.728;23.256;2023-03-18T00:07:35;95372.66;;;-1.02;100.00
57801;BME280;43627;42.728;23.256;2023-03-18T00:10:04;95368.06;;;-0.98;100.00
57801;BME280;43627;42.728;23.256;2023-03-18T00:12:32;95379.16;;;-0.96;100.00
57801;BME280;43627;42.728;23.256;2023-03-18T00:14:59;95365.06;;;-0.82;100.00
57801;BME280;43627;42.728;23.256;2023-03-18T00:17:35;95378.81;;;-0.80;100.00
57801;BME280;43627;42.728;23.256;2023-03-18T00:20:04;95374.94;;;-1.01;100.00
57801;BME280;43627;42.728;23.256;2023-03-18T00:22:33;95371.81;;;-1.17;100.00
57801;BME280;43627;42.728;23.256;2023-03-18T00:25:00;95375.59;;;-1.25;100.00
57801;BME280;43627;42.728;23.256;2023-03-18T00:27:27;95365.22;;;-1.34;100.00
57801;BME280;43627;42.728;23.256;2023-03-18T00:29:54;95353.28;;;-1.54;100.00
57801;BME280;43627;42.728;23.256;2023-03-18T00:32:21;95357.97;;;-1.37;100.00
57801;BME280;43627;42.728;23.256;2023-03-18T00:34:48;95357.91;;;-1.51;100.00
57801;BME280;43627;42.728;23.256;2023-03-18T00:37:16;95370.19;;;-1.39;100.00
57801;BME280;43627;42.728;23.256;2023-03-18T00:39:59;95357.19;;;-1.34;100.00
57801;BME280;43627;42.728;23.256;2023-03-18T00:42:37;95350.31;;;-1.35;100.00
57801;BME280;43627;42.728;23.256;2023-03-18T00:45:07;95338.09;;;-1.39;100.00
57801;BME280;43627;42.728;23.256;2023-03-18T00:47:34;95340.38;;;-1.38;100.00
57801;BME280;43627;42.728;23.256;2023-03-18T00:50:01;95338.50;;;-1.30;100.00
57801;BME280;43627;42.728;23.256;2023-03-18T00:52:29;95334.25;;;-1.38;100.00
57801;BME280;43627;42.728;23.256;2023-03-18T00:54:57;95325.50;;;-1.32;100.00
57801;BME280;43627;42.728;23.256;2023-03-18T00:57:24;95338.50;;;-1.27;100.00
57801;BME280;43627;42.728;23.256;2023-03-18T00:59:51;95322.06;;;-1.32;100.00
57801;BME280;43627;42.728;23.256;2023-03-18T01:02:18;95333.19;;;-1.20;100.00
57801;BME280;43627;42.728;23.256;2023-03-18T01:04:45;95329.00;;;-1.17;100.00
57801;BME280;43627;42.728;23.256;2023-03-18T01:07:11;95316.75;;;-1.22;100.00
57801;BME280;43627;42.728;23.256;2023-03-18T01:09:38;95324.06;;;-1.04;100.00
57801;BME280;43627;42.728;23.256;2023-03-18T01:12:07;95326.72;;;-1.04;100.00
57801;BME280;43627;42.728;23.256;2023-03-18T01:14:35;95329.44;;;-0.97;100.00
57801;BME280;43627;42.728;23.256;2023-03-18T01:17:03;95331.31;;;-1.08;100.00
57801;BME280;43627;42.728;23.256;2023-03-18T01:19:30;95324.06;;;-1.11;100.00
57801;BME280;43627;42.728;23.256;2023-03-18T01:21:57;95326.34;;;-1.06;100.00
57801;BME280;43627;42.728;23.256;2023-03-18T01:24:24;95332.13;;;-0.90;100.00
57801;BME280;43627;42.728;23.256;2023-03-18T01:26:51;95327.22;;;-0.67;100.00
57801;BME280;43627;42.728;23.256;2023-03-18T01:29:17;95316.53;;;-0.63;100.00
57801;BME280;43627;42.728;23.256;2023-03-18T01:31:46;95324.53;;;-0.70;100.00
57801;BME280;43627;42.728;23.256;2023-03-18T01:34:13;95326.81;;;-0.69;100.00
57801;BME280;43627;42.728;23.256;2023-03-18T01:36:39;95320.72;;;-0.66;100.00
57801;BME280;43627;42.728;23.256;2023-03-18T01:39:07;95313.41;;;-0.87;100.00
57801;BME280;43627;42.728;23.256;2023-03-18T01:41:34;95307.22;;;-1.08;100.00
57801;BME280;43627;42.728;23.256;2023-03-18T01:44:02;95316.44;;;-1.02;100.00
57801;BME280;43627;42.728;23.256;2023-03-18T01:46:34;95317.94;;;-1.05;100.00
57801;BME280;43627;42.728;23.256;2023-03-18T01:49:14;95321.69;;;-1.27;100.00
57801;BME280;43627;42.728;23.256;2023-03-18T01:51:45;95314.81;;;-1.32;100.00
57801;BME280;43627;42.728;23.256;2023-03-18T01:54:13;95319.03;;;-1.27;100.00
57801;BME280;43627;42.728;23.256;2023-03-18T01:56:42;95308.31;;;-1.27;100.00
57801;BME280;43627;42.728;23.256;2023-03-18T01:59:11;95307.56;;;-1.28;100.00
57801;BME280;43627;42.728;23.256;2023-03-18T02:01:50;95307.09;;;-1.51;100.00
57801;BME280;43627;42.728;23.256;2023-03-18T02:04:20;95284.44;;;-1.72;100.00
57801;BME280;43627;42.728;23.256;2023-03-18T02:06:48;95300.59;;;-1.50;100.00
57801;BME280;43627;42.728;23.256;2023-03-18T02:09:15;95303.69;;;-1.37;100.00
57801;BME280;43627;42.728;23.256;2023-03-18T02:11:44;95284.16;;;-1.45;100.00
57801;BME280;43627;42.728;23.256;2023-03-18T02:14:17;95300.66;;;-1.29;100.00
57801;BME280;43627;42.728;23.256;2023-03-18T02:17:02;95292.22;;;-1.38;100.00
57801;BME280;43627;42.728;23.256;2023-03-18T02:22:31;95296.00;;;-1.46;100.00
57801;BME280;43627;42.728;23.256;2023-03-18T02:25:41;95296.38;;;-1.51;100.00
57801;BME280;43627;42.728;23.256;2023-03-18T02:28:11;95301.72;;;-1.55;100.00
57801;BME280;43627;42.728;23.256;2023-03-18T02:30:43;95296.00;;;-1.50;100.00
57801;BME280;43627;42.728;23.256;2023-03-18T02:33:14;95292.16;;;-1.56;100.00
57801;BME280;43627;42.728;23.256;2023-03-18T02:35:43;95293.28;;;-1.57;100.00
57801;BME280;43627;42.728;23.256;2023-03-18T02:38:11;95295.94;;;-1.64;100.00
57801;BME280;43627;42.728;23.256;2023-03-18T02:40:39;95297.94;;;-1.43;100.00
57801;BME280;43627;42.728;23.256;2023-03-18T02:43:28;95297.94;;;-1.43;100.00
57801;BME280;43627;42.728;23.256;2023-03-18T02:46:26;95302.84;;;-1.59;100.00
57801;BME280;43627;42.728;23.256;2023-03-18T02:48:59;95298.59;;;-1.67;100.00
57801;BME280;43627;42.728;23.256;2023-03-18T02:51:27;95300.50;;;-1.68;100.00
57801;BME280;43627;42.728;23.256;2023-03-18T02:53:57;95296.66;;;-1.74;100.00
57801;BME280;43627;42.728;23.256;2023-03-18T02:56:26;95287.88;;;-1.71;100.00
57801;BME280;43627;42.728;23.256;2023-03-18T02:58:52;95303.41;;;-1.94;100.00
57801;BME280;43627;42.728;23.256;2023-03-18T03:01:19;95288.38;;;-2.17;100.00
57801;BME280;43627;42.728;23.256;2023-03-18T03:03:48;95299.16;;;-2.03;100.00
57801;BME280;43627;42.728;23.256;2023-03-18T03:06:14;95297.25;;;-2.02;100.00
57801;BME280;43627;42.728;23.256;2023-03-18T03:08:42;95291.84;;;-2.09;100.00
57801;BME280;43627;42.728;23.256;2023-03-18T03:11:10;95294.19;;;-2.04;100.00
57801;BME280;43627;42.728;23.256;2023-03-18T03:13:39;95298.75;;;-2.05;100.00
57801;BME280;43627;42.728;23.256;2023-03-18T03:16:07;95301.06;;;-1.99;100.00
57801;BME280;43627;42.728;23.256;2023-03-18T03:18:34;95300.31;;;-2.00;100.00
57801;BME280;43627;42.728;23.256;2023-03-18T03:21:01;95289.53;;;-2.18;100.00
57801;BME280;43627;42.728;23.256;2023-03-18T03:23:28;95304.50;;;-2.03;100.00
57801;BME280;43627;42.728;23.256;2023-03-18T03:25:54;95304.81;;;-2.11;100.00
57801;BME280;43627;42.728;23.256;2023-03-18T03:28:22;95310.59;;;-2.02;100.00
57801;BME280;43627;42.728;23.256;2023-03-18T03:30:49;95301.81;;;-2.03;100.00
57801;BME280;43627;42.728;23.256;2023-03-18T03:33:16;95307.44;;;-2.18;100.00
57801;BME280;43627;42.728;23.256;2023-03-18T03:35:43;95301.38;;;-2.12;100.00
57801;BME280;43627;42.728;23.256;2023-03-18T03:38:10;95305.19;;;-2.13;100.00
57801;BME280;43627;42.728;23.256;2023-03-18T03:40:38;95307.13;;;-2.10;100.00
57801;BME280;43627;42.728;23.256;2023-03-18T03:43:05;95310.91;;;-2.14;100.00
57801;BME280;43627;42.728;23.256;2023-03-18T03:45:32;95316.25;;;-2.14;100.00
57801;BME280;43627;42.728;23.256;2023-03-18T03:48:00;95304.38;;;-2.20;100.00
57801;BME280;43627;42.728;23.256;2023-03-18T03:50:27;95320.03;;;-2.19;100.00
57801;BME280;43627;42.728;23.256;2023-03-18T03:52:54;95307.34;;;-2.29;100.00
57801;BME280;43627;42.728;23.256;2023-03-18T03:55:20;95317.31;;;-2.26;100.00
57801;BME280;43627;42.728;23.256;2023-03-18T03:57:48;95318.47;;;-2.23;100.00
57801;BME280;43627;42.728;23.256;2023-03-18T04:00:18;95320.69;;;-2.33;100.00
57801;BME280;43627;42.728;23.256;2023-03-18T04:02:47;95321.44;;;-2.36;100.00
57801;BME280;43627;42.728;23.256;2023-03-18T04:05:16;95314.53;;;-2.40;100.00
57801;BME280;43627;42.728;23.256;2023-03-18T04:07:44;95322.69;;;-2.22;100.00
57801;BME280;43627;42.728;23.256;2023-03-18T04:10:13;95325.72;;;-2.24;100.00
57801;BME280;43627;42.728;23.256;2023-03-18T04:12:42;95314.59;;;-2.33;100.00
57801;BME280;43627;42.728;23.256;2023-03-18T04:15:12;95331.38;;;-2.33;100.00
57801;BME280;43627;42.728;23.256;2023-03-18T04:17:39;95329.00;;;-2.41;100.00
57801;BME280;43627;42.728;23.256;2023-03-18T04:20:06;95330.38;;;-2.58;100.00
57801;BME280;43627;42.728;23.256;2023-03-18T04:22:33;95329.22;;;-2.64;100.00
57801;BME280;43627;42.728;23.256;2023-03-18T04:25:01;95340.59;;;-2.67;100.00
57801;BME280;43627;42.728;23.256;2023-03-18T04:27:28;95340.13;;;-2.76;100.00
57801;BME280;43627;42.728;23.256;2023-03-18T04:29:55;95346.22;;;-2.79;100.00
57801;BME280;43627;42.728;23.256;2023-03-18T04:32:25;95345.75;;;-2.85;100.00
57801;BME280;43627;42.728;23.256;2023-03-18T04:34:54;95351.09;;;-2.85;100.00
57801;BME280;43627;42.728;23.256;2023-03-18T04:37:21;95352.09;;;-2.63;100.00
57801;BME280;43627;42.728;23.256;2023-03-18T04:39:48;95346.81;;;-2.56;100.00
57801;BME280;43627;42.728;23.256;2023-03-18T04:42:15;95349.16;;;-2.47;100.00
57801;BME280;43627;42.728;23.256;2023-03-18T04:44:43;95351.50;;;-2.42;100.00
57801;BME280;43627;42.728;23.256;2023-03-18T04:47:10;95355.25;;;-2.50;100.00
57801;BME280;43627;42.728;23.256;2023-03-18T04:49:38;95352.97;;;-2.52;100.00
57801;BME280;43627;42.728;23.256;2023-03-18T04:52:05;95364.06;;;-2.46;100.00
57801;BME280;43627;42.728;23.256;2023-03-18T04:54:33;95371.19;;;-2.58;100.00
57801;BME280;43627;42.728;23.256;2023-03-18T04:56:59;95360.75;;;-2.73;100.00
57801;BME280;43627;42.728;23.256;2023-03-18T04:59:27;95367.59;;;-2.76;100.00
57801;BME280;43627;42.728;23.256;2023-03-18T05:01:53;95366.81;;;-2.76;100.00
57801;BME280;43627;42.728;23.256;2023-03-18T05:04:20;95364.41;;;-2.89;100.00
57801;BME280;43627;42.728;23.256;2023-03-18T05:06:47;95373.56;;;-2.86;100.00
57801;BME280;43627;42.728;23.256;2023-03-18T05:09:14;95371.63;;;-2.93;100.00
57801;BME280;43627;42.728;23.256;2023-03-18T05:11:40;95373.94;;;-2.88;100.00
57801;BME280;43627;42.728;23.256;2023-03-18T05:14:07;95368.28;;;-2.82;100.00
57801;BME280;43627;42.728;23.256;2023-03-18T05:16:34;95371.84;;;-2.71;100.00
57801;BME280;43627;42.728;23.256;2023-03-18T05:19:02;95368.03;;;-2.70;100.00
57801;BME280;43627;42.728;23.256;2023-03-18T05:21:28;95369.06;;;-2.41;100.00
57801;BME280;43627;42.728;23.256;2023-03-18T05:23:55;95345.09;;;-2.34;100.00
57801;BME280;43627;42.728;23.256;2023-03-18T05:26:22;95370.31;;;-2.28;100.00
57801;BME280;43627;42.728;23.256;2023-03-18T05:28:50;95361.50;;;-1.88;100.00
57801;BME280;43627;42.728;23.256;2023-03-18T05:31:17;95368.06;;;-0.98;100.00
57801;BME280;43627;42.728;23.256;2023-03-18T05:33:44;95360.19;;;-0.09;100.00
57801;BME280;43627;42.728;23.256;2023-03-18T05:36:11;95370.53;;;0.14;100.00
57801;BME280;43627;42.728;23.256;2023-03-18T05:38:38;95377.34;;;0.65;100.00
57801;BME280;43627;42.728;23.256;2023-03-18T05:41:06;95372.59;;;1.11;100.00
57801;BME280;43627;42.728;23.256;2023-03-18T05:43:32;95368.25;;;1.32;100.00
57801;BME280;43627;42.728;23.256;2023-03-18T05:45:59;95388.88;;;1.56;100.00
57801;BME280;43627;42.728;23.256;2023-03-18T05:48:26;95394.38;;;1.28;100.00
57801;BME280;43627;42.728;23.256;2023-03-18T05:50:53;95403.28;;;1.14;100.00
57801;BME280;43627;42.728;23.256;2023-03-18T05:53:19;95404.53;;;0.81;100.00
57801;BME280;43627;42.728;23.256;2023-03-18T05:55:46;95396.91;;;0.62;100.00
57801;BME280;43627;42.728;23.256;2023-03-18T05:58:14;95409.19;;;0.27;100.00
57801;BME280;43627;42.728;23.256;2023-03-18T06:00:40;95388.53;;;-0.08;100.00
57801;BME280;43627;42.728;23.256;2023-03-18T06:03:07;95401.16;;;-0.16;100.00
57801;BME280;43627;42.728;23.256;2023-03-18T06:05:34;95412.63;;;-0.37;100.00
57801;BME280;43627;42.728;23.256;2023-03-18T06:08:01;95402.66;;;-0.36;100.00
57801;BME280;43627;42.728;23.256;2023-03-18T06:10:28;95392.69;;;-0.43;100.00
57801;BME280;43627;42.728;23.256;2023-03-18T06:12:55;95402.19;;;-0.74;100.00
57801;BME280;43627;42.728;23.256;2023-03-18T06:15:22;95410.97;;;-0.77;100.00
57801;BME280;43627;42.728;23.256;2023-03-18T06:17:50;95407.91;;;-0.82;100.00
57801;BME280;43627;42.728;23.256;2023-03-18T06:20:17;95405.25;;;-0.72;100.00
57801;BME280;43627;42.728;23.256;2023-03-18T06:22:45;95405.69;;;-0.55;100.00
57801;BME280;43627;42.728;23.256;2023-03-18T06:25:19;95397.25;;;-0.61;100.00
57801;BME280;43627;42.728;23.256;2023-03-18T06:27:46;95390.28;;;-0.87;100.00
57801;BME280;43627;42.728;23.256;2023-03-18T06:30:15;95397.91;;;-0.86;100.00
57801;BME280;43627;42.728;23.256;2023-03-18T06:32:42;95387.59;;;-0.94;100.00
57801;BME280;43627;42.728;23.256;2023-03-18T06:35:10;95387.97;;;-0.89;100.00
57801;BME280;43627;42.728;23.256;2023-03-18T06:37:37;95391.06;;;-0.76;100.00
57801;BME280;43627;42.728;23.256;2023-03-18T06:40:06;95351.97;;;-1.12;100.00
57801;BME280;43627;42.728;23.256;2023-03-18T06:42:34;95384.94;;;-0.83;100.00
57801;BME280;43627;42.728;23.256;2023-03-18T06:45:01;95374.66;;;-0.64;100.00
57801;BME280;43627;42.728;23.256;2023-03-18T06:47:27;95357.09;;;-0.50;100.00
57801;BME280;43627;42.728;23.256;2023-03-18T06:49:54;95376.25;;;-0.20;100.00
57801;BME280;43627;42.728;23.256;2023-03-18T06:52:22;95381.25;;;-0.04;100.00
57801;BME280;43627;42.728;23.256;2023-03-18T06:54:49;95385.84;;;0.03;100.00
57801;BME280;43627;42.728;23.256;2023-03-18T06:57:16;95383.19;;;-0.08;100.00
57801;BME280;43627;42.728;23.256;2023-03-18T06:59:43;95395.03;;;0.26;100.00
57801;BME280;43627;42.728;23.256;2023-03-18T07:02:11;95390.78;;;0.54;100.00
57801;BME280;43627;42.728;23.256;2023-03-18T07:04:38;95385.38;;;0.79;100.00
57801;BME280;43627;42.728;23.256;2023-03-18T07:07:05;95374.13;;;1.09;100.00
57801;BME280;43627;42.728;23.256;2023-03-18T07:09:32;95383.38;;;1.04;100.00
57801;BME280;43627;42.728;23.256;2023-03-18T07:11:59;95379.13;;;1.07;100.00
57801;BME280;43627;42.728;23.256;2023-03-18T07:14:26;95375.06;;;1.54;100.00
57801;BME280;43627;42.728;23.256;2023-03-18T07:16:54;95380.91;;;1.97;100.00
57801;BME280;43627;42.728;23.256;2023-03-18T07:19:21;95375.16;;;1.95;100.00
57801;BME280;43627;42.728;23.256;2023-03-18T07:21:48;95373.56;;;2.05;100.00
57801;BME280;43627;42.728;23.256;2023-03-18T07:24:15;95383.22;;;1.99;100.00
57801;BME280;43627;42.728;23.256;2023-03-18T07:26:42;95382.28;;;2.20;100.00
57801;BME280;43627;42.728;23.256;2023-03-18T07:29:09;95384.97;;;2.20;100.00
57801;BME280;43627;42.728;23.256;2023-03-18T07:31:36;95381.34;;;2.41;100.00
57801;BME280;43627;42.728;23.256;2023-03-18T07:34:02;95386.69;;;2.44;100.00
57801;BME280;43627;42.728;23.256;2023-03-18T07:36:30;95382.06;;;2.86;100.00
57801;BME280;43627;42.728;23.256;2023-03-18T07:38:57;95390.97;;;3.13;100.00
57801;BME280;43627;42.728;23.256;2023-03-18T07:41:25;95392.56;;;3.68;100.00
57801;BME280;43627;42.728;23.256;2023-03-18T07:43:52;95395.09;;;3.83;100.00
57801;BME280;43627;42.728;23.256;2023-03-18T07:46:19;95397.88;;;4.03;100.00
57801;BME280;43627;42.728;23.256;2023-03-18T07:48:46;95386.28;;;4.29;100.00
57801;BME280;43627;42.728;23.256;2023-03-18T07:51:14;95381.78;;;4.46;100.00
57801;BME280;43627;42.728;23.256;2023-03-18T07:53:41;95387.34;;;4.12;100.00
57801;BME280;43627;42.728;23.256;2023-03-18T07:56:08;95384.38;;;3.79;100.00
57801;BME280;43627;42.728;23.256;2023-03-18T07:58:36;95387.84;;;3.76;100.00
57801;BME280;43627;42.728;23.256;2023-03-18T08:01:04;95386.13;;;3.89;100.00
57801;BME280;43627;42.728;23.256;2023-03-18T08:03:31;95380.75;;;3.62;100.00
57801;BME280;43627;42.728;23.256;2023-03-18T08:05:59;95373.78;;;3.88;100.00
57801;BME280;43627;42.728;23.256;2023-03-18T08:08:26;95378.88;;;3.56;100.00
57801;BME280;43627;42.728;23.256;2023-03-18T08:10:57;95379.44;;;3.43;100.00
57801;BME280;43627;42.728;23.256;2023-03-18T08:13:25;95375.53;;;3.75;100.00
57801;BME280;43627;42.728;23.256;2023-03-18T08:15:52;95373.28;;;3.97;100.00
57801;BME280;43627;42.728;23.256;2023-03-18T08:18:20;95380.22;;;3.71;100.00
57801;BME280;43627;42.728;23.256;2023-03-18T08:20:47;95372.53;;;3.96;100.00
57801;BME280;43627;42.728;23.256;2023-03-18T08:23:14;95389.88;;;3.95;100.00
57801;BME280;43627;42.728;23.256;2023-03-18T08:25:41;95387.81;;;4.30;100.00
57801;BME280;43627;42.728;23.256;2023-03-18T08:28:08;95376.88;;;4.61;100.00
57801;BME280;43627;42.728;23.256;2023-03-18T08:30:38;95384.59;;;4.82;100.00
57801;BME280;43627;42.728;23.256;2023-03-18T08:33:04;95360.34;;;4.58;100.00
57801;BME280;43627;42.728;23.256;2023-03-18T08:35:31;95382.53;;;4.90;100.00
57801;BME280;43627;42.728;23.256;2023-03-18T08:38:00;95379.94;;;5.06;100.00
57801;BME280;43627;42.728;23.256;2023-03-18T08:40:27;95370.72;;;4.83;98.70
57801;BME280;43627;42.728;23.256;2023-03-18T08:42:53;95377.78;;;4.97;100.00
57801;BME280;43627;42.728;23.256;2023-03-18T08:45:20;95378.09;;;5.39;95.42
57801;BME280;43627;42.728;23.256;2023-03-18T08:47:47;95363.09;;;5.54;88.00
57801;BME280;43627;42.728;23.256;2023-03-18T08:50:14;95364.19;;;5.40;90.34
57801;BME280;43627;42.728;23.256;2023-03-18T08:52:41;95377.25;;;5.62;88.13
57801;BME280;43627;42.728;23.256;2023-03-18T08:55:08;95371.88;;;5.78;86.92
57801;BME280;43627;42.728;23.256;2023-03-18T08:57:35;95367.56;;;5.81;85.09
57801;BME280;43627;42.728;23.256;2023-03-18T09:00:03;95376.94;;;5.76;83.32
57801;BME280;43627;42.728;23.256;2023-03-18T09:02:30;95375.03;;;5.93;83.02
57801;BME280;43627;42.728;23.256;2023-03-18T09:04:57;95384.00;;;6.06;81.19
57801;BME280;43627;42.728;23.256;2023-03-18T09:07:24;95374.88;;;6.33;76.13
57801;BME280;43627;42.728;23.256;2023-03-18T09:09:51;95362.38;;;6.39;75.75
57801;BME280;43627;42.728;23.256;2023-03-18T09:12:17;95351.09;;;6.40;73.91
57801;BME280;43627;42.728;23.256;2023-03-18T09:14:44;95374.00;;;6.68;72.35
57801;BME280;43627;42.728;23.256;2023-03-18T09:17:12;95372.66;;;7.05;70.33
57801;BME280;43627;42.728;23.256;2023-03-18T09:19:40;95372.25;;;7.49;62.54
57801;BME280;43627;42.728;23.256;2023-03-18T09:22:07;95372.94;;;7.78;58.83
57801;BME280;43627;42.728;23.256;2023-03-18T09:24:34;95373.25;;;7.93;59.91
57801;BME280;43627;42.728;23.256;2023-03-18T09:27:01;95369.75;;;8.30;56.43
57801;BME280;43627;42.728;23.256;2023-03-18T09:29:28;95378.47;;;8.38;56.02
57801;BME280;43627;42.728;23.256;2023-03-18T09:31:55;95378.13;;;8.23;54.58
57801;BME280;43627;42.728;23.256;2023-03-18T09:34:22;95366.63;;;7.81;52.72
57801;BME280;43627;42.728;23.256;2023-03-18T09:36:48;95382.16;;;7.93;52.97
57801;BME280;43627;42.728;23.256;2023-03-18T09:39:18;95353.34;;;7.58;52.46
57801;BME280;43627;42.728;23.256;2023-03-18T09:42:12;95355.56;;;7.88;51.42
57801;BME280;43627;42.728;23.256;2023-03-18T09:44:43;95361.16;;;8.32;51.96
57801;BME280;43627;42.728;23.256;2023-03-18T09:47:20;95363.47;;;8.81;51.03
57801;BME280;43627;42.728;23.256;2023-03-18T09:52:35;95362.13;;;8.51;49.62
57801;BME280;43627;42.728;23.256;2023-03-18T09:55:16;95353.88;;;8.29;49.75
57801;BME280;43627;42.728;23.256;2023-03-18T09:57:48;95350.13;;;8.01;48.77
57801;BME280;43627;42.728;23.256;2023-03-18T10:05:32;95360.00;;;8.08;51.11
57801;BME280;43627;42.728;23.256;2023-03-18T10:08:23;95359.41;;;8.64;48.35
57801;BME280;43627;42.728;23.256;2023-03-18T10:10:59;95361.47;;;8.59;47.51
57801;BME280;43627;42.728;23.256;2023-03-18T10:13:34;95361.91;;;8.58;48.64
57801;BME280;43627;42.728;23.256;2023-03-18T10:16:03;95349.50;;;8.57;48.16
57801;BME280;43627;42.728;23.256;2023-03-18T10:18:34;95346.97;;;8.75;47.12
57801;BME280;43627;42.728;23.256;2023-03-18T10:26:41;95358.44;;;9.36;45.55
57801;BME280;43627;42.728;23.256;2023-03-18T10:29:39;95352.13;;;10.01;44.93
57801;BME280;43627;42.728;23.256;2023-03-18T10:39:43;95348.13;;;9.31;45.84
57801;BME280;43627;42.728;23.256;2023-03-18T10:44:46;95346.28;;;8.84;46.58
57801;BME280;43627;42.728;23.256;2023-03-18T10:47:15;95342.47;;;8.21;48.69
57801;BME280;43627;42.728;23.256;2023-03-18T10:52:34;95334.16;;;7.78;49.76
57801;BME280;43627;42.728;23.256;2023-03-18T10:55:15;95347.28;;;7.66;49.48
57801;BME280;43627;42.728;23.256;2023-03-18T10:57:42;95337.13;;;7.29;49.86
57801;BME280;43627;42.728;23.256;2023-03-18T11:00:29;95350.81;;;7.25;49.86
57801;BME280;43627;42.728;23.256;2023-03-18T11:02:59;95342.97;;;7.14;50.59
57801;BME280;43627;42.728;23.256;2023-03-18T11:05:34;95323.84;;;7.05;50.75
57801;BME280;43627;42.728;23.256;2023-03-18T11:08:06;95351.41;;;7.04;50.68
57801;BME280;43627;42.728;23.256;2023-03-18T11:10:43;95323.47;;;6.62;51.34
57801;BME280;43627;42.728;23.256;2023-03-18T11:13:18;95330.69;;;6.81;51.05
57801;BME280;43627;42.728;23.256;2023-03-18T11:15:51;95343.63;;;6.90;50.91
57801;BME280;43627;42.728;23.256;2023-03-18T11:18:21;95344.47;;;6.74;50.62
57801;BME280;43627;42.728;23.256;2023-03-18T11:20:57;95343.69;;;6.73;48.80
57801;BME280;43627;42.728;23.256;2023-03-18T11:26:27;95328.31;;;7.12;46.42
57801;BME280;43627;42.728;23.256;2023-03-18T11:29:01;95330.88;;;7.57;45.00
57801;BME280;43627;42.728;23.256;2023-03-18T11:31:30;95322.84;;;7.66;42.89
57801;BME280;43627;42.728;23.256;2023-03-18T11:33:58;95340.88;;;8.11;42.05
57801;BME280;43627;42.728;23.256;2023-03-18T11:36:27;95318.56;;;8.29;40.77
57801;BME280;43627;42.728;23.256;2023-03-18T11:39:00;95332.59;;;8.27;39.67
57801;BME280;43627;42.728;23.256;2023-03-18T11:41:29;95321.00;;;8.01;40.61
57801;BME280;43627;42.728;23.256;2023-03-18T11:46:33;95302.56;;;7.71;41.98
57801;BME280;43627;42.728;23.256;2023-03-18T11:49:03;95319.78;;;8.28;40.70
57801;BME280;43627;42.728;23.256;2023-03-18T11:51:37;95308.97;;;8.84;40.96
57801;BME280;43627;42.728;23.256;2023-03-18T11:57:00;95317.97;;;8.59;40.92
57801;BME280;43627;42.728;23.256;2023-03-18T12:02:40;95315.53;;;8.74;41.59
57801;BME280;43627;42.728;23.256;2023-03-18T12:08:25;95307.19;;;8.69;40.76
57801;BME280;43627;42.728;23.256;2023-03-18T12:13:42;95294.88;;;8.42;40.50
57801;BME280;43627;42.728;23.256;2023-03-18T12:30:41;95314.28;;;8.88;39.83
57801;BME280;43627;42.728;23.256;2023-03-18T12:40:56;95301.34;;;7.97;41.14
57801;BME280;43627;42.728;23.256;2023-03-18T12:43:33;95313.28;;;8.13;40.92
57801;BME280;43627;42.728;23.256;2023-03-18T12:46:11;95311.19;;;8.29;40.45
57801;BME280;43627;42.728;23.256;2023-03-18T12:48:53;95303.84;;;8.65;39.40
57801;BME280;43627;42.728;23.256;2023-03-18T12:51:26;95301.72;;;8.81;38.40
57801;BME280;43627;42.728;23.256;2023-03-18T12:53:59;95314.72;;;9.08;38.25
57801;BME280;43627;42.728;23.256;2023-03-18T12:56:35;95287.28;;;8.94;38.20
57801;BME280;43627;42.728;23.256;2023-03-18T12:59:11;95288.06;;;9.25;37.86
57801;BME280;43627;42.728;23.256;2023-03-18T13:01:56;95294.81;;;9.11;37.96
57801;BME280;43627;42.728;23.256;2023-03-18T13:04:30;95298.91;;;9.16;37.84
57801;BME280;43627;42.728;23.256;2023-03-18T13:07:14;95298.00;;;9.41;37.38
57801;BME280;43627;42.728;23.256;2023-03-18T13:09:49;95288.44;;;9.36;38.28
57801;BME280;43627;42.728;23.256;2023-03-18T13:12:22;95293.75;;;9.40;39.39
57801;BME280;43627;42.728;23.256;2023-03-18T13:15:01;95296.28;;;9.34;39.10
57801;BME280;43627;42.728;23.256;2023-03-18T13:17:41;95291.19;;;9.14;38.88
57801;BME280;43627;42.728;23.256;2023-03-18T13:30:51;95310.25;;;9.14;38.44
57801;BME280;43627;42.728;23.256;2023-03-18T13:39:35;95319.28;;;8.08;39.49
57801;BME280;43627;42.728;23.256;2023-03-18T13:45:10;95305.97;;;8.70;38.72
57801;BME280;43627;42.728;23.256;2023-03-18T13:47:41;95305.03;;;8.85;38.00
57801;BME280;43627;42.728;23.256;2023-03-18T13:52:46;95296.94;;;9.69;37.26
57801;BME280;43627;42.728;23.256;2023-03-18T14:07:58;95284.03;;;9.08;37.17
57801;BME280;43627;42.728;23.256;2023-03-18T14:10:29;95283.38;;;8.38;38.29
57801;BME280;43627;42.728;23.256;2023-03-18T14:12:55;95295.00;;;8.39;38.78
57801;BME280;43627;42.728;23.256;2023-03-18T14:15:41;95286.16;;;8.47;38.70
57801;BME280;43627;42.728;23.256;2023-03-18T14:18:22;95281.44;;;8.61;38.14
57801;BME280;43627;42.728;23.256;2023-03-18T14:20:57;95283.91;;;8.90;37.46
57801;BME280;43627;42.728;23.256;2023-03-18T14:23:33;95290.44;;;8.92;37.51
57801;BME280;43627;42.728;23.256;2023-03-18T14:26:20;95280.88;;;9.09;37.28
57801;BME280;43627;42.728;23.256;2023-03-18T14:39:25;95291.75;;;9.09;36.67
57801;BME280;43627;42.728;23.256;2023-03-18T14:41:58;95277.72;;;8.89;36.41
57801;BME280;43627;42.728;23.256;2023-03-18T14:44:54;95290.69;;;8.85;37.38
57801;BME280;43627;42.728;23.256;2023-03-18T14:47:24;95298.66;;;9.23;36.39
57801;BME280;43627;42.728;23.256;2023-03-18T14:50:38;95293.75;;;9.40;35.92
57801;BME280;43627;42.728;23.256;2023-03-18T14:53:29;95283.69;;;9.28;36.29
57801;BME280;43627;42.728;23.256;2023-03-18T14:55:59;95292.50;;;9.32;35.76